createdAt,value
2023-04-14T00:00:19.350Z,99.58
2023-04-14T00:01:19.358Z,99.17
2023-04-14T00:02:19.439Z,99.02
2023-04-14T00:03:19.654Z,98.96
2023-04-14T00:04:19.406Z,98.92
2023-04-14T00:05:19.349Z,98.75
2023-04-14T00:06:19.370Z,98.61
2023-04-14T00:07:19.275Z,98.71
2023-04-14T00:08:19.241Z,98.50
2023-04-14T00:09:19.239Z,98.65
2023-04-14T00:10:19.233Z,98.44
2023-04-14T00:11:19.240Z,98.03
2023-04-14T00:12:19.206Z,98.55
2023-04-14T00:13:19.214Z,98.44
2023-04-14T00:14:19.173Z,99.17
2023-04-14T00:15:19.184Z,99.58
2023-04-14T00:16:19.186Z,99.64
2023-04-14T00:17:19.315Z,99.79
2023-04-14T00:18:19.148Z,99.17
2023-04-14T00:19:19.115Z,99.43
2023-04-14T00:20:19.110Z,99.07
2023-04-14T00:21:19.155Z,99.43
2023-04-14T00:22:19.092Z,99.48
2023-04-14T00:23:19.073Z,99.38
2023-04-14T00:24:19.075Z,99.07
2023-04-14T00:51:01.655Z,99.99
2023-04-14T00:52:01.584Z,99.99
2023-04-14T00:53:01.513Z,99.99
2023-04-14T00:54:01.633Z,99.99
2023-04-14T00:55:01.434Z,99.99
2023-04-14T00:56:01.413Z,99.73
2023-04-14T00:57:01.391Z,99.99
2023-04-14T00:58:01.387Z,99.63
2023-04-14T00:59:01.658Z,99.43
2023-04-14T01:00:01.465Z,99.32
2023-04-14T01:01:01.347Z,99.32
2023-04-14T01:02:01.410Z,99.73
2023-04-14T01:03:01.470Z,99.32
2023-04-14T01:04:01.334Z,99.94
2023-04-14T01:05:01.501Z,99.63
2023-04-14T01:06:01.337Z,99.22
2023-04-14T01:07:01.274Z,99.84
2023-04-14T01:08:01.261Z,99.01
2023-04-14T01:09:01.461Z,99.94
2023-04-14T01:10:01.262Z,99.94
2023-04-14T01:11:01.248Z,99.99
2023-04-14T01:12:01.241Z,99.84
2023-04-14T01:13:01.230Z,99.99
2023-04-14T01:14:01.197Z,99.99
2023-04-14T01:15:01.189Z,99.94
2023-04-14T01:16:01.222Z,99.94
2023-04-14T01:17:01.174Z,99.32
2023-04-14T01:18:01.189Z,99.17
2023-04-14T01:19:01.416Z,99.17
2023-04-14T01:20:01.134Z,99.07
2023-04-14T01:21:01.128Z,98.55
2023-04-14T01:22:01.171Z,98.65
2023-04-14T01:23:01.102Z,98.24
2023-04-14T01:24:01.115Z,98.03
2023-04-14T01:25:01.100Z,98.09
2023-04-14T01:26:01.093Z,98.65
2023-04-14T01:27:01.088Z,98.13
2023-04-14T01:28:01.038Z,98.13
2023-04-14T01:29:01.223Z,98.03
2023-04-14T01:30:01.033Z,98.39
2023-04-14T01:31:01.024Z,99.01
2023-04-14T01:32:01.237Z,98.91
2023-04-14T01:33:01.048Z,98.70
2023-04-14T01:34:00.984Z,99.11
2023-04-14T01:35:00.973Z,98.70
2023-04-14T01:36:00.951Z,98.70
2023-04-14T01:37:00.958Z,98.70
2023-04-14T01:38:02.126Z,98.80
2023-04-14T01:39:02.271Z,98.60
2023-04-14T01:40:02.108Z,99.01
2023-04-14T01:41:02.022Z,98.70
2023-04-14T01:42:02.020Z,98.60
2023-04-14T01:43:02.039Z,98.60
2023-04-14T01:44:02.012Z,98.24
2023-04-14T01:47:02.372Z,98.28
2023-04-14T01:48:02.497Z,98.39
2023-04-14T01:49:02.594Z,98.43
2023-04-14T01:50:02.269Z,98.85
2023-04-14T01:51:02.281Z,99.37
2023-04-14T01:52:02.199Z,99.16
2023-04-14T02:04:43.479Z,99.52
2023-04-14T02:05:43.455Z,99.78
2023-04-14T02:06:43.369Z,99.62
2023-04-14T02:07:43.468Z,99.41
2023-04-14T02:08:43.282Z,99.72
2023-04-14T02:09:43.328Z,99.46
2023-04-14T02:10:43.268Z,99.99
2023-04-14T02:11:43.265Z,99.99
2023-04-14T02:12:43.262Z,99.99
2023-04-14T02:13:43.231Z,99.99
2023-04-14T02:14:43.256Z,99.99
2023-04-14T02:15:43.215Z,99.99
2023-04-14T02:16:43.230Z,99.99
2023-04-14T02:17:43.221Z,99.99
2023-04-14T02:18:43.166Z,99.99
2023-04-14T02:19:43.151Z,99.99
2023-04-14T02:20:43.432Z,99.99
2023-04-14T02:21:43.169Z,99.87
2023-04-14T02:22:43.164Z,99.99
2023-04-14T02:23:43.110Z,99.99
2023-04-14T02:24:43.130Z,99.77
2023-04-14T02:25:43.081Z,99.99
2023-04-14T02:26:43.093Z,99.99
2023-04-14T02:27:43.070Z,99.99
2023-04-14T02:28:43.048Z,99.99
2023-04-14T02:29:43.037Z,99.99
2023-04-14T02:30:43.044Z,99.99
2023-04-14T02:31:43.042Z,99.99
2023-04-14T02:32:43.038Z,99.99
2023-04-14T02:33:42.994Z,99.99
2023-04-14T02:34:42.978Z,99.99
2023-04-14T02:35:42.975Z,99.99
2023-04-14T02:36:42.983Z,99.99
2023-04-14T02:37:42.945Z,99.99
2023-04-14T02:38:42.928Z,99.99
2023-04-14T02:39:42.950Z,99.99
2023-04-14T02:40:42.910Z,99.99
2023-04-14T02:41:42.918Z,99.99
2023-04-14T02:42:42.885Z,99.99
2023-04-14T02:43:42.894Z,99.99
2023-04-14T02:44:43.058Z,99.99
2023-04-14T02:45:42.856Z,99.99
2023-04-14T02:46:42.865Z,99.99
2023-04-14T02:47:42.847Z,99.99
2023-04-14T02:48:42.828Z,99.99
2023-04-14T02:49:42.826Z,99.99
2023-04-14T02:50:42.793Z,99.99
2023-04-14T02:51:42.845Z,99.99
2023-04-14T02:52:42.796Z,99.99
2023-04-14T02:53:42.791Z,99.99
2023-04-14T02:54:42.751Z,99.99
2023-04-14T02:57:18.368Z,99.99
2023-04-14T02:58:18.300Z,99.99
2023-04-14T02:59:18.290Z,99.99
2023-04-14T03:00:18.251Z,99.99
2023-04-14T03:01:18.162Z,99.99
2023-04-14T03:02:18.238Z,99.99
2023-04-14T03:22:37.246Z,99.99
2023-04-14T03:23:37.305Z,99.99
2023-04-14T03:24:37.243Z,99.99
2023-04-14T03:25:37.191Z,99.99
2023-04-14T03:26:37.178Z,99.99
2023-04-14T03:27:37.165Z,99.99
2023-04-14T03:28:38.150Z,99.99
2023-04-14T03:29:37.262Z,99.99
2023-04-14T03:30:37.045Z,99.99
2023-04-14T03:31:37.146Z,99.99
2023-04-14T03:32:37.080Z,99.99
2023-04-14T03:36:26.423Z,99.99
2023-04-14T03:37:26.489Z,99.99
2023-04-14T03:38:26.350Z,99.99
2023-04-14T03:39:26.308Z,99.99
2023-04-14T03:40:26.248Z,99.99
2023-04-14T03:41:26.225Z,99.99
2023-04-14T03:42:26.420Z,99.99
2023-04-14T03:43:26.206Z,99.99
2023-04-14T03:44:26.192Z,99.99
2023-04-14T03:45:26.185Z,99.99
2023-04-14T03:46:26.212Z,99.99
2023-04-14T03:47:26.148Z,99.99
2023-04-14T03:48:26.174Z,99.99
2023-04-14T03:49:26.136Z,99.99
2023-04-14T03:50:26.107Z,99.99
2023-04-14T03:51:26.124Z,99.99
2023-04-14T03:52:26.085Z,99.99
2023-04-14T03:53:26.096Z,99.99
2023-04-14T03:54:26.080Z,99.99
2023-04-14T03:55:26.082Z,99.99
2023-04-14T03:56:26.041Z,99.99
2023-04-14T03:57:26.031Z,99.99
2023-04-14T03:58:26.104Z,99.99
2023-04-14T03:59:26.026Z,99.99
2023-04-14T04:00:25.996Z,99.99
2023-04-14T04:01:26.104Z,99.99
2023-04-14T04:02:26.099Z,99.99
2023-04-14T04:03:26.095Z,99.99
2023-04-14T04:04:26.059Z,99.99
2023-04-14T04:05:25.939Z,99.99
2023-04-14T04:06:25.923Z,99.99
2023-04-14T04:07:25.908Z,99.99
2023-04-14T04:08:25.894Z,99.99
2023-04-14T04:09:25.889Z,99.99
2023-04-14T04:10:25.911Z,99.99
2023-04-14T04:11:25.893Z,99.99
2023-04-14T04:12:25.858Z,99.99
2023-04-14T04:13:25.844Z,99.99
2023-04-14T04:14:25.828Z,99.99
2023-04-14T04:15:25.819Z,99.99
2023-04-14T04:16:25.914Z,99.99
2023-04-14T04:17:25.807Z,99.99
2023-04-14T04:18:25.814Z,99.99
2023-04-14T04:19:25.779Z,99.99
2023-04-14T04:20:26.913Z,99.99
2023-04-14T04:21:26.953Z,99.99
2023-04-14T04:22:26.891Z,99.99
2023-04-14T04:23:26.854Z,99.99
2023-04-14T04:24:26.918Z,99.99
2023-04-14T04:25:26.846Z,99.99
2023-04-14T04:26:26.838Z,99.99
2023-04-14T04:27:28.017Z,99.99
2023-04-14T04:28:27.818Z,99.99
2023-04-14T04:29:26.831Z,99.99
2023-04-14T04:30:26.772Z,99.90
2023-04-14T04:31:26.897Z,99.99
2023-04-14T04:32:26.973Z,99.79
2023-04-14T04:33:26.755Z,99.52
2023-04-14T04:34:26.732Z,99.21
2023-04-14T04:35:26.742Z,99.11
2023-04-14T04:36:27.789Z,99.42
2023-04-14T04:37:26.706Z,99.73
2023-04-14T04:38:26.699Z,99.99
2023-04-14T04:39:26.674Z,99.99
2023-04-14T04:40:26.680Z,99.94
2023-04-14T04:41:26.696Z,99.63
2023-04-14T04:42:26.663Z,99.73
2023-04-14T04:43:26.641Z,99.73
2023-04-14T04:44:26.628Z,99.42
2023-04-14T04:45:26.643Z,99.79
2023-04-14T04:46:26.666Z,99.32
2023-04-14T04:47:26.677Z,99.01
2023-04-14T04:48:26.575Z,99.94
2023-04-14T04:49:26.567Z,99.73
2023-04-14T04:50:26.572Z,99.99
2023-04-14T04:51:26.583Z,99.63
2023-04-14T04:52:26.547Z,99.99
2023-04-14T04:53:26.540Z,99.73
2023-04-14T04:54:26.508Z,99.99
2023-04-14T04:55:26.510Z,99.84
2023-04-14T04:56:26.522Z,99.99
2023-04-14T04:57:26.490Z,99.99
2023-04-14T04:58:26.461Z,99.94
2023-04-14T04:59:26.467Z,99.94
2023-04-14T05:00:26.646Z,99.73
2023-04-14T05:01:26.495Z,99.84
2023-04-14T05:02:26.523Z,99.21
2023-04-14T05:03:27.642Z,99.21
2023-04-14T05:04:26.445Z,99.11
2023-04-14T05:05:26.388Z,98.80
2023-04-14T05:06:26.402Z,98.80
2023-04-14T05:07:26.522Z,98.69
2023-04-14T05:08:26.364Z,98.54
2023-04-14T05:12:02.114Z,98.23
2023-04-14T05:13:02.067Z,98.33
2023-04-14T05:14:02.276Z,98.02
2023-04-14T05:15:01.994Z,98.27
2023-04-14T05:16:02.274Z,98.69
2023-04-14T05:17:01.934Z,98.48
2023-04-14T05:18:02.022Z,98.94
2023-04-14T05:19:02.089Z,99.26
2023-04-14T05:20:01.870Z,99.20
2023-04-14T05:21:01.873Z,99.93
2023-04-14T05:22:01.918Z,99.99
2023-04-14T05:23:01.852Z,99.99
2023-04-14T05:24:01.826Z,99.99
2023-04-14T05:25:01.837Z,99.99
2023-04-14T05:26:16.294Z,99.99
2023-04-14T05:27:12.987Z,99.99
2023-04-14T05:28:02.809Z,99.99
2023-04-14T05:29:01.982Z,99.06
2023-04-14T05:30:01.829Z,98.50
2023-04-14T05:31:01.730Z,98.14
2023-04-14T05:32:01.726Z,97.20
2023-04-14T05:33:01.803Z,96.94
2023-04-14T05:34:01.986Z,96.73
2023-04-14T05:35:01.701Z,97.04
2023-04-14T05:36:01.675Z,97.10
2023-04-14T05:37:01.670Z,96.60
2023-04-14T05:38:01.671Z,94.70
2023-04-14T05:39:01.662Z,91.57
2023-04-14T05:40:01.820Z,88.80
2023-04-14T05:41:01.635Z,86.03
2023-04-14T05:42:01.623Z,85.37
2023-04-14T05:43:01.602Z,83.09
2023-04-14T05:44:01.857Z,81.20
2023-04-14T05:45:01.610Z,80.99
2023-04-14T05:46:01.727Z,80.47
2023-04-14T05:47:01.613Z,80.13
2023-04-14T05:48:01.605Z,79.33
2023-04-14T05:49:01.964Z,78.86
2023-04-14T05:50:01.537Z,79.44
2023-04-14T05:51:01.537Z,78.23
2023-04-14T05:52:01.498Z,76.10
2023-04-14T05:53:01.488Z,74.12
2023-04-14T05:54:01.763Z,73.64
2023-04-14T05:55:01.461Z,72.38
2023-04-14T05:56:01.484Z,71.36
2023-04-14T05:57:01.610Z,69.65
2023-04-14T05:58:01.425Z,68.60
2023-04-14T05:59:01.403Z,68.90
2023-04-14T06:00:03.178Z,67.91
2023-04-14T06:01:02.545Z,68.66
2023-04-14T06:02:02.579Z,68.29
2023-04-14T06:03:02.662Z,66.21
2023-04-14T06:04:02.844Z,65.67
2023-04-14T06:05:02.577Z,63.85
2023-04-14T06:06:02.452Z,64.46
2023-04-14T06:07:02.460Z,63.75
2023-04-14T06:08:02.414Z,63.41
2023-04-14T06:09:03.075Z,62.87
2023-04-14T06:10:02.402Z,62.23
2023-04-14T06:11:02.376Z,63.00
2023-04-14T06:12:02.414Z,63.48
2023-04-14T06:13:02.345Z,62.40
2023-04-14T06:14:03.343Z,61.36
2023-04-14T06:15:02.327Z,60.49
2023-04-14T06:16:02.367Z,59.34
2023-04-14T06:17:02.302Z,58.40
2023-04-14T06:18:02.345Z,58.22
2023-04-14T06:19:02.581Z,59.01
2023-04-14T06:20:02.330Z,61.41
2023-04-14T06:21:02.334Z,67.00
2023-04-14T06:22:02.304Z,68.36
2023-04-14T06:23:02.278Z,69.85
2023-04-14T06:24:02.238Z,69.32
2023-04-14T06:25:02.340Z,67.93
2023-04-14T06:26:02.236Z,66.60
2023-04-14T06:27:02.203Z,67.85
2023-04-14T06:28:02.230Z,69.04
2023-04-14T06:29:02.400Z,70.68
2023-04-14T06:30:02.176Z,70.06
2023-04-14T06:31:02.203Z,69.76
2023-04-14T06:32:02.266Z,67.43
2023-04-14T06:33:02.217Z,65.60
2023-04-14T06:34:02.140Z,64.61
2023-04-14T06:35:02.119Z,64.54
2023-04-14T06:36:02.155Z,65.50
2023-04-14T06:37:02.191Z,63.54
2023-04-14T06:38:02.355Z,63.68
2023-04-14T06:39:02.345Z,61.29
2023-04-14T06:40:02.075Z,59.99
2023-04-14T06:41:02.069Z,59.66
2023-04-14T06:42:02.060Z,59.43
2023-04-14T06:43:02.038Z,59.81
2023-04-14T06:44:02.074Z,58.84
2023-04-14T06:45:02.011Z,57.17
2023-04-14T06:46:02.025Z,57.54
2023-04-14T06:47:02.004Z,56.63
2023-04-14T06:48:02.047Z,56.28
2023-04-14T06:49:02.073Z,57.24
2023-04-14T06:50:02.009Z,60.04
2023-04-14T06:51:01.938Z,61.11
2023-04-14T06:52:02.008Z,61.37
2023-04-14T06:53:01.989Z,62.18
2023-04-14T06:54:02.217Z,61.78
2023-04-14T06:55:01.911Z,64.37
2023-04-14T06:56:01.887Z,67.55
2023-04-14T06:57:01.863Z,68.54
2023-04-14T06:58:01.868Z,69.96
2023-04-14T06:59:02.013Z,68.27
2023-04-14T07:00:01.870Z,66.61
2023-04-14T07:01:01.870Z,65.53
2023-04-14T07:02:01.885Z,64.20
2023-04-14T07:03:01.828Z,70.03
2023-04-14T07:04:03.250Z,75.79
2023-04-14T07:05:01.829Z,76.40
2023-04-14T07:06:01.771Z,75.79
2023-04-14T07:07:02.072Z,73.36
2023-04-14T07:08:01.734Z,71.67
2023-04-14T07:09:01.731Z,72.11
2023-04-14T07:10:01.806Z,75.00
2023-04-14T07:11:01.737Z,75.65
2023-04-14T07:12:02.684Z,74.42
2023-04-14T07:13:01.691Z,75.35
2023-04-14T07:14:01.873Z,79.38
2023-04-14T07:15:01.691Z,79.86
2023-04-14T07:16:01.708Z,80.33
2023-04-14T07:17:01.636Z,80.07
2023-04-14T07:18:01.659Z,80.81
2023-04-14T07:19:01.611Z,80.51
2023-04-14T07:20:01.830Z,82.23
2023-04-14T07:21:01.603Z,84.01
2023-04-14T07:22:01.593Z,83.17
2023-04-14T07:23:01.563Z,84.54
2023-04-14T07:24:01.762Z,84.36
2023-04-14T07:25:01.563Z,83.63
2023-04-14T07:26:01.521Z,80.30
2023-04-14T07:27:01.554Z,78.35
2023-04-14T07:28:03.954Z,77.87
2023-04-14T07:29:02.493Z,78.70
2023-04-14T07:30:01.483Z,79.48
2023-04-14T07:31:01.478Z,77.15
2023-04-14T07:32:01.489Z,75.68
2023-04-14T07:33:01.523Z,73.67
2023-04-14T07:34:01.775Z,71.50
2023-04-14T07:35:01.424Z,71.53
2023-04-14T07:36:03.425Z,70.78
2023-04-14T07:37:02.431Z,69.46
2023-04-14T07:38:01.384Z,71.09
2023-04-14T07:39:01.366Z,71.80
2023-04-14T07:40:01.406Z,76.03
2023-04-14T07:41:01.424Z,75.68
2023-04-14T07:42:01.369Z,76.12
2023-04-14T07:43:01.440Z,76.03
2023-04-14T07:44:01.393Z,75.27
2023-04-14T07:45:01.518Z,78.21
2023-04-14T07:46:01.295Z,80.44
2023-04-14T07:47:01.320Z,81.51
2023-04-14T07:48:01.318Z,85.31
2023-04-14T07:49:15.809Z,83.62
2023-04-14T07:50:21.626Z,88.62
2023-04-14T07:52:55.013Z,90.12
2023-04-14T07:53:01.474Z,92.74
2023-04-14T07:54:01.794Z,91.91
2023-04-14T07:55:06.438Z,91.27
2023-04-14T07:56:01.447Z,88.08
2023-04-14T07:57:01.407Z,89.22
2023-04-14T07:58:01.399Z,89.97
2023-04-14T07:59:01.607Z,89.22
2023-04-14T08:00:01.413Z,88.43
2023-04-14T08:01:01.352Z,89.97
2023-04-14T08:02:01.453Z,90.73
2023-04-14T08:03:01.473Z,91.11
2023-04-14T08:04:01.639Z,90.94
2023-04-14T08:05:01.326Z,91.68
2023-04-14T08:06:01.313Z,88.56
2023-04-14T08:07:01.289Z,83.74
2023-04-14T08:08:01.291Z,78.92
2023-04-14T08:09:01.459Z,78.11
2023-04-14T08:10:01.249Z,76.40
2023-04-14T08:11:01.300Z,74.52
2023-04-14T08:12:01.246Z,75.58
2023-04-14T08:13:03.570Z,79.91
2023-04-14T08:14:01.234Z,79.71
2023-04-14T08:15:01.200Z,79.33
2023-04-14T08:16:01.214Z,78.23
2023-04-14T08:17:01.176Z,78.17
2023-04-14T08:18:01.222Z,77.39
2023-04-14T08:19:01.515Z,77.70
2023-04-14T08:20:01.131Z,80.77
2023-04-14T08:21:01.150Z,84.12
2023-04-14T08:22:01.104Z,83.34
2023-04-14T08:23:01.170Z,85.33
2023-04-14T08:24:01.602Z,85.03
2023-04-14T08:25:01.104Z,85.11
2023-04-14T08:26:01.124Z,87.12
2023-04-14T08:27:01.070Z,88.62
2023-04-14T08:28:01.078Z,85.23
2023-04-14T08:29:01.321Z,87.34
2023-04-14T08:30:01.029Z,85.11
2023-04-14T08:31:01.017Z,81.98
2023-04-14T08:32:01.046Z,83.39
2023-04-14T08:33:01.146Z,84.52
2023-04-14T08:34:01.029Z,85.27
2023-04-14T08:35:37.200Z,85.50
2023-04-14T08:36:01.049Z,84.06
2023-04-14T08:37:00.968Z,84.31
2023-04-14T08:38:00.947Z,87.38
2023-04-14T08:39:01.044Z,86.83
2023-04-14T08:40:00.936Z,85.77
2023-04-14T08:41:00.903Z,87.14
2023-04-14T08:42:01.935Z,85.83
2023-04-14T08:43:00.889Z,84.29
2023-04-14T08:44:00.864Z,84.52
2023-04-14T08:45:00.910Z,83.69
2023-04-14T08:46:00.899Z,86.77
2023-04-14T08:47:00.833Z,87.34
2023-04-14T08:48:00.898Z,85.01
2023-04-14T08:49:00.961Z,83.92
2023-04-14T08:50:00.845Z,83.58
2023-04-14T08:51:00.809Z,83.03
2023-04-14T08:52:00.790Z,82.37
2023-04-14T08:53:00.762Z,80.02
2023-04-14T08:54:01.020Z,79.37
2023-04-14T08:55:00.750Z,81.88
2023-04-14T08:56:00.822Z,79.64
2023-04-14T08:57:00.727Z,81.38
2023-04-14T08:58:00.741Z,84.15
2023-04-14T08:59:00.718Z,71.29
2023-04-14T09:00:00.690Z,66.18
2023-04-14T09:01:00.918Z,64.39
2023-04-14T09:02:00.758Z,68.80
2023-04-14T09:03:00.865Z,66.36
2023-04-14T09:04:00.965Z,68.94
2023-04-14T09:05:00.706Z,71.09
2023-04-14T09:06:00.620Z,76.84
2023-04-14T09:07:00.634Z,63.06
2023-04-14T09:08:00.621Z,65.14
2023-04-14T09:09:00.593Z,70.00
2023-04-14T09:10:00.577Z,66.20
2023-04-14T09:11:00.567Z,62.20
2023-04-14T09:12:00.573Z,64.29
2023-04-14T09:13:00.559Z,62.88
2023-04-14T09:14:00.821Z,58.98
2023-04-14T09:15:00.554Z,56.81
2023-04-14T09:16:00.534Z,57.14
2023-04-14T09:17:00.604Z,54.28
2023-04-14T09:18:00.517Z,53.83
2023-04-14T09:19:07.406Z,54.54
2023-04-14T09:20:35.251Z,55.82
2023-04-14T09:21:30.470Z,55.71
2023-04-14T09:22:01.501Z,55.51
2023-04-14T09:23:00.448Z,57.62
2023-04-14T09:24:00.582Z,53.64
2023-04-14T09:25:00.431Z,54.36
2023-04-14T09:26:00.448Z,57.65
2023-04-14T09:27:00.466Z,59.08
2023-04-14T09:28:00.440Z,57.81
2023-04-14T09:29:00.612Z,61.32
2023-04-14T09:30:00.378Z,61.30
2023-04-14T09:31:00.377Z,58.44
2023-04-14T09:32:00.368Z,57.26
2023-04-14T09:33:00.457Z,59.07
2023-04-14T09:34:00.607Z,57.79
2023-04-14T09:35:00.340Z,54.97
2023-04-14T09:36:00.304Z,56.55
2023-04-14T09:37:00.290Z,57.00
2023-04-14T09:38:00.397Z,52.63
2023-04-14T09:39:00.267Z,53.11
2023-04-14T09:40:00.257Z,56.22
2023-04-14T09:41:00.254Z,56.83
2023-04-14T09:42:00.240Z,56.02
2023-04-14T09:43:00.216Z,56.88
2023-04-14T09:44:00.501Z,53.32
2023-04-14T09:45:00.204Z,55.18
2023-04-14T09:46:00.208Z,55.41
2023-04-14T09:47:00.188Z,56.40
2023-04-14T09:48:00.237Z,55.71
2023-04-14T09:49:00.994Z,56.83
2023-04-14T09:50:00.184Z,57.42
2023-04-14T09:51:00.149Z,55.58
2023-04-14T09:52:00.147Z,57.01
2023-04-14T09:53:00.126Z,58.37
2023-04-14T09:54:00.592Z,58.95
2023-04-14T09:55:00.096Z,59.41
2023-04-14T09:56:00.143Z,58.41
2023-04-14T09:57:00.093Z,57.29
2023-04-14T09:58:00.416Z,56.93
2023-04-14T09:59:00.473Z,55.30
2023-04-14T10:00:00.094Z,53.96
2023-04-14T10:01:00.030Z,55.25
2023-04-14T10:02:00.173Z,53.63
2023-04-14T10:03:00.047Z,54.69
2023-04-14T10:03:59.981Z,55.15
2023-04-14T10:05:00.039Z,51.64
2023-04-14T10:05:59.975Z,53.47
2023-04-14T10:06:59.958Z,53.72
2023-04-14T10:07:59.958Z,55.40
2023-04-14T10:09:00.202Z,55.12
2023-04-14T10:09:59.984Z,55.71
2023-04-14T10:10:59.931Z,53.30
2023-04-14T10:11:59.902Z,55.27
2023-04-14T10:12:59.918Z,57.21
2023-04-14T10:13:59.887Z,56.32
2023-04-14T10:14:59.867Z,55.63
2023-04-14T10:15:59.949Z,55.38
2023-04-14T10:16:59.870Z,56.70
2023-04-14T10:17:59.862Z,55.99
2023-04-14T10:19:00.298Z,56.12
2023-04-14T10:19:59.832Z,55.71
2023-04-14T10:20:59.839Z,55.74
2023-04-14T10:21:59.803Z,56.93
2023-04-14T10:22:59.836Z,59.20
2023-04-14T10:23:59.771Z,59.07
2023-04-14T10:24:59.766Z,59.07
2023-04-14T10:25:59.801Z,58.59
2023-04-14T10:26:59.771Z,57.26
2023-04-14T10:27:59.733Z,57.47
2023-04-14T10:28:59.841Z,57.57
2023-04-14T10:29:59.718Z,57.75
2023-04-14T10:30:59.718Z,59.20
2023-04-14T10:31:59.796Z,59.48
2023-04-14T10:32:59.730Z,58.44
2023-04-14T10:33:59.684Z,56.27
2023-04-14T10:34:59.678Z,56.75
2023-04-14T10:35:59.665Z,56.55
2023-04-14T10:36:59.690Z,57.43
2023-04-14T10:37:59.640Z,56.65
2023-04-14T10:38:59.919Z,55.96
2023-04-14T10:39:59.605Z,56.60
2023-04-14T10:40:59.611Z,56.90
2023-04-14T10:41:59.632Z,56.57
2023-04-14T10:42:59.577Z,55.96
2023-04-14T10:44:00.292Z,53.90
2023-04-14T10:44:59.569Z,53.88
2023-04-14T10:45:59.554Z,55.22
2023-04-14T10:46:59.662Z,55.40
2023-04-14T10:47:59.593Z,55.51
2023-04-14T10:48:59.907Z,55.68
2023-04-14T10:49:59.586Z,53.22
2023-04-14T10:50:59.507Z,52.10
2023-04-14T10:51:59.483Z,52.51
2023-04-14T10:53:00.153Z,53.72
2023-04-14T10:53:59.471Z,53.12
2023-04-14T10:54:59.473Z,51.34
2023-04-14T10:55:59.431Z,51.44
2023-04-14T10:56:59.433Z,51.54
2023-04-14T10:57:59.468Z,50.50
2023-04-14T10:58:59.512Z,51.72
2023-04-14T10:59:59.558Z,51.42
2023-04-14T11:00:59.397Z,47.25
2023-04-14T11:01:59.488Z,46.94
2023-04-14T11:02:59.544Z,48.87
2023-04-14T11:03:59.446Z,49.76
2023-04-14T11:04:59.363Z,48.14
2023-04-14T11:05:59.325Z,48.57
2023-04-14T11:06:59.315Z,47.75
2023-04-14T11:08:02.384Z,49.71
2023-04-14T11:09:00.581Z,50.65
2023-04-14T11:09:59.289Z,51.26
2023-04-14T11:10:59.350Z,50.65
2023-04-14T11:11:59.252Z,51.06
2023-04-14T11:12:59.263Z,50.55
2023-04-14T11:13:59.256Z,51.79
2023-04-14T11:14:59.248Z,51.56
2023-04-14T11:15:59.220Z,50.95
2023-04-14T11:17:03.439Z,50.73
2023-04-14T11:18:00.226Z,50.62
2023-04-14T11:18:59.219Z,51.26
2023-04-14T11:19:59.184Z,49.45
2023-04-14T11:20:59.205Z,51.08
2023-04-14T11:21:59.158Z,50.19
2023-04-14T11:22:59.133Z,48.05
2023-04-14T11:23:59.145Z,49.90
2023-04-14T11:24:59.172Z,51.23
2023-04-14T11:25:59.102Z,53.14
2023-04-14T11:26:59.088Z,51.92
2023-04-14T11:27:59.081Z,51.92
2023-04-14T11:28:59.231Z,51.00
2023-04-14T11:29:59.088Z,49.88
2023-04-14T11:30:59.110Z,51.31
2023-04-14T11:31:59.064Z,51.20
2023-04-14T11:32:59.104Z,51.72
2023-04-14T11:33:59.050Z,51.31
2023-04-14T11:34:59.016Z,50.52
2023-04-14T11:35:59.039Z,51.23
2023-04-14T11:36:58.985Z,50.82
2023-04-14T11:37:58.955Z,52.88
2023-04-14T11:38:59.080Z,52.91
2023-04-14T11:39:58.963Z,56.30
2023-04-14T11:40:58.974Z,56.07
2023-04-14T11:41:58.922Z,56.50
2023-04-14T11:42:58.922Z,57.09
2023-04-14T11:43:58.896Z,55.28
2023-04-14T11:44:58.901Z,55.46
2023-04-14T11:45:58.919Z,55.28
2023-04-14T11:46:58.893Z,55.61
2023-04-14T11:47:58.977Z,55.74
2023-04-14T11:48:58.943Z,55.94
2023-04-14T11:49:58.841Z,56.32
2023-04-14T11:50:58.826Z,55.58
2023-04-14T11:51:58.861Z,56.30
2023-04-14T11:52:58.817Z,55.66
2023-04-14T11:53:58.867Z,55.66
2023-04-14T11:54:58.785Z,57.19
2023-04-14T11:55:58.804Z,55.94
2023-04-14T11:56:58.804Z,55.30
2023-04-14T11:57:58.781Z,54.08
2023-04-14T11:58:58.778Z,53.34
2023-04-14T11:59:58.728Z,53.06
2023-04-14T12:00:58.734Z,53.27
2023-04-14T12:01:58.818Z,52.73
2023-04-14T12:02:58.896Z,54.16
2023-04-14T12:03:58.913Z,52.83
2023-04-14T12:04:58.826Z,53.85
2023-04-14T12:05:58.662Z,54.24
2023-04-14T12:06:58.661Z,53.42
2023-04-14T12:07:58.666Z,51.26
2023-04-14T12:08:58.630Z,50.01
2023-04-14T12:09:58.730Z,48.59
2023-04-14T12:10:58.626Z,47.37
2023-04-14T12:11:58.605Z,45.70
2023-04-14T12:12:58.635Z,46.90
2023-04-14T12:13:58.575Z,46.27
2023-04-14T12:14:58.565Z,46.12
2023-04-14T12:15:58.655Z,45.90
2023-04-14T12:16:58.544Z,48.00
2023-04-14T12:17:58.596Z,44.54
2023-04-14T12:18:58.558Z,46.79
2023-04-14T12:19:58.514Z,46.30
2023-04-14T12:20:58.515Z,46.02
2023-04-14T12:21:58.490Z,45.31
2023-04-14T12:22:58.505Z,47.10
2023-04-14T12:23:58.507Z,48.97
2023-04-14T12:24:58.465Z,50.75
2023-04-14T12:25:58.441Z,51.28
2023-04-14T12:26:58.442Z,51.18
2023-04-14T12:27:58.457Z,53.83
2023-04-14T12:28:58.467Z,51.34
2023-04-14T12:29:58.406Z,48.47
2023-04-14T12:30:58.399Z,50.53
2023-04-14T12:31:58.433Z,48.86
2023-04-14T12:32:58.408Z,48.41
2023-04-14T12:33:58.381Z,48.14
2023-04-14T12:34:58.408Z,48.32
2023-04-14T12:35:58.350Z,44.86
2023-04-14T12:36:58.341Z,45.95
2023-04-14T12:37:58.308Z,43.83
2023-04-14T12:38:58.303Z,41.18
2023-04-14T12:39:58.394Z,43.69
2023-04-14T12:40:58.285Z,43.29
2023-04-14T12:41:58.265Z,45.31
2023-04-14T12:42:58.401Z,46.10
2023-04-14T12:43:58.272Z,48.11
2023-04-14T12:44:58.231Z,46.79
2023-04-14T12:45:58.292Z,44.15
2023-04-14T12:46:58.234Z,45.50
2023-04-14T12:47:58.242Z,46.45
2023-04-14T12:48:58.177Z,45.54
2023-04-14T12:49:58.172Z,47.85
2023-04-14T12:50:58.196Z,46.89
2023-04-14T12:51:58.224Z,46.75
2023-04-14T12:52:58.133Z,48.26
2023-04-14T12:53:58.121Z,44.88
2023-04-14T12:54:58.113Z,45.29
2023-04-14T12:55:58.131Z,45.77
2023-04-14T12:56:58.084Z,46.62
2023-04-14T12:57:58.140Z,44.96
2023-04-14T12:58:58.049Z,48.55
2023-04-14T12:59:58.036Z,50.58
2023-04-14T13:00:58.051Z,47.61
2023-04-14T13:01:58.180Z,44.87
2023-04-14T13:02:58.171Z,46.51
2023-04-14T13:03:59.097Z,48.04
2023-04-14T13:04:57.974Z,46.56
2023-04-14T13:05:57.958Z,48.05
2023-04-14T13:06:57.966Z,49.88
2023-04-14T13:07:57.935Z,49.09
2023-04-14T13:08:57.930Z,50.29
2023-04-14T13:09:57.918Z,49.58
2023-04-14T13:10:57.890Z,48.39
2023-04-14T13:11:57.917Z,46.82
2023-04-14T13:12:57.872Z,49.19
2023-04-14T13:13:57.887Z,45.54
2023-04-14T13:14:57.848Z,44.54
2023-04-14T13:16:13.978Z,46.57
2023-04-14T13:16:57.860Z,47.08
2023-04-14T13:17:57.856Z,46.19
2023-04-14T13:18:57.803Z,47.53
2023-04-14T13:19:57.802Z,46.92
2023-04-14T13:20:57.796Z,47.71
2023-04-14T13:21:57.806Z,46.56
2023-04-14T13:22:57.770Z,47.55
2023-04-14T13:23:57.753Z,47.83
2023-04-14T13:24:57.732Z,46.51
2023-04-14T13:25:57.739Z,46.82
2023-04-14T13:26:57.711Z,47.20
2023-04-14T13:27:57.746Z,47.91
2023-04-14T13:28:57.689Z,47.38
2023-04-14T13:29:57.674Z,46.90
2023-04-14T13:30:57.677Z,46.82
2023-04-14T13:31:57.686Z,49.02
2023-04-14T13:32:57.757Z,47.54
2023-04-14T13:33:57.851Z,48.79
2023-04-14T13:34:57.648Z,48.91
2023-04-14T13:35:57.610Z,49.19
2023-04-14T13:36:57.590Z,51.00
2023-04-14T13:37:58.105Z,48.66
2023-04-14T13:38:57.585Z,48.76
2023-04-14T13:39:57.556Z,49.86
2023-04-14T13:40:57.561Z,49.58
2023-04-14T13:41:57.537Z,51.43
2023-04-14T13:42:57.535Z,51.20
2023-04-14T13:43:57.580Z,50.98
2023-04-14T13:44:57.507Z,50.95
2023-04-14T13:45:57.524Z,48.39
2023-04-14T13:46:57.919Z,48.16
2023-04-14T13:47:57.495Z,46.94
2023-04-14T13:48:57.640Z,47.74
2023-04-14T13:49:57.466Z,47.13
2023-04-14T13:50:57.448Z,48.24
2023-04-14T13:51:57.434Z,50.04
2023-04-14T13:52:57.428Z,51.37
2023-04-14T13:53:57.411Z,48.55
2023-04-14T13:54:57.442Z,49.56
2023-04-14T13:55:57.386Z,49.28
2023-04-14T13:56:57.442Z,50.42
2023-04-14T13:57:57.364Z,48.16
2023-04-14T13:58:57.343Z,48.44